Time;durP1;ratioP1;P1;durP2;ratioP2;P2;SDS_P1;SDS_P2;PMS_P1;PMS_P2;Temp;Humidity;BMP_temperature;BMP_pressure;BME280_temperature;BME280_humidity;BME280_pressure;Samples;Min_cycle;Max_cycle;Signal;HPM_P1;HPM_P2
2021/04/04 00:00:05;;;;;;;2.37;0.70;;;30.20;82.00;;;;;;5042354;28;20476;-78
2021/04/04 00:02:32;;;;;;;0.88;0.60;;;30.20;80.20;;;;;;5034766;28;20415;-79
2021/04/04 00:04:59;;;;;;;3.10;0.65;;;30.00;79.70;;;;;;5032362;28;20406;-79
2021/04/04 00:07:25;;;;;;;1.90;0.63;;;30.30;82.80;;;;;;5042979;28;20419;-78
2021/04/04 00:09:52;;;;;;;0.98;0.40;;;30.70;86.80;;;;;;5049040;28;20564;-77
2021/04/04 00:12:19;;;;;;;1.60;0.50;;;30.00;81.30;;;;;;5045514;28;20383;-79
2021/04/04 00:14:46;;;;;;;1.70;0.50;;;30.00;80.70;;;;;;5042717;28;20422;-79
2021/04/04 00:17:13;;;;;;;2.20;0.87;;;30.20;79.40;;;;;;5039644;28;20404;-78
2021/04/04 00:19:40;;;;;;;1.53;0.90;;;30.20;81.60;;;;;;5037757;28;20511;-79
2021/04/04 00:22:09;;;;;;;1.88;0.70;;;30.20;78.90;;;;;;5059143;28;20415;-79
2021/04/04 00:24:36;;;;;;;1.10;0.73;;;30.10;86.00;;;;;;5045974;28;20423;-79
2021/04/04 00:27:03;;;;;;;1.85;1.52;;;30.30;81.90;;;;;;5049453;28;20416;-79
2021/04/04 00:29:31;;;;;;;3.10;2.20;;;30.60;82.70;;;;;;5049370;28;20380;-79
2021/04/04 00:31:58;;;;;;;2.58;1.60;;;30.40;81.70;;;;;;5049637;28;20383;-80
2021/04/04 00:34:25;;;;;;;2.28;0.60;;;30.80;80.60;;;;;;5038816;28;20409;-80
2021/04/04 00:36:52;;;;;;;3.27;0.60;;;30.00;81.80;;;;;;5032617;28;20956;-80
2021/04/04 00:39:20;;;;;;;1.55;0.57;;;30.20;83.50;;;;;;5044837;28;20431;-80
2021/04/04 00:41:47;;;;;;;1.50;0.70;;;30.00;85.00;;;;;;5050676;28;20446;-80
2021/04/04 00:44:17;;;;;;;2.35;0.45;;;30.40;87.30;;;;;;5044066;28;20408;-80
2021/04/04 00:46:44;;;;;;;1.83;0.40;;;30.70;79.30;;;;;;5052487;28;20900;-79
2021/04/04 00:49:11;;;;;;;1.65;0.45;;;30.70;80.80;;;;;;5036481;28;20732;-79
2021/04/04 00:51:39;;;;;;;0.77;0.40;;;30.40;77.40;;;;;;5045655;28;20508;-79
2021/04/04 00:54:06;;;;;;;3.33;0.70;;;30.50;77.60;;;;;;5034826;28;20488;-80
2021/04/04 00:56:34;;;;;;;1.70;0.40;;;29.90;78.20;;;;;;5041389;28;20429;-80
2021/04/04 00:59:03;;;;;;;1.87;0.60;;;30.30;80.30;;;;;;5041127;28;20414;-79
2021/04/04 01:01:32;;;;;;;9.90;8.90;;;29.70;80.90;;;;;;5049910;28;20407;-79
2021/04/04 01:03:59;;;;;;;12.65;11.38;;;29.60;82.30;;;;;;5065551;28;20908;-80
2021/04/04 01:06:26;;;;;;;13.90;12.55;;;29.40;83.20;;;;;;5049071;28;20384;-80
2021/04/04 01:08:53;;;;;;;2.10;1.35;;;28.90;88.80;;;;;;5050559;28;20415;-80
2021/04/04 01:11:39;;;;;;;5.93;5.40;;;28.20;86.30;;;;;;5050586;28;20871;-80
2021/04/04 01:14:26;;;;;;;1.33;0.50;;;27.20;89.30;;;;;;5043085;28;20404;-80
2021/04/04 01:17:00;;;;;;;1.65;0.60;;;26.50;90.60;;;;;;5047039;28;20902;-80
2021/04/04 01:19:36;;;;;;;4.22;3.70;;;26.20;92.80;;;;;;5040302;28;20412;-80
2021/04/04 01:22:50;;;;;;;0.68;0.57;;;26.10;93.90;;;;;;5031879;28;20446;-81
2021/04/04 01:25:30;;;;;;;9.27;5.33;;;25.60;92.90;;;;;;5042666;28;20408;-81
2021/04/04 01:28:21;;;;;;;4.95;2.60;;;25.40;94.80;;;;;;5044482;28;20408;-80
2021/04/04 01:30:50;;;;;;;3.13;1.38;;;25.20;96.20;;;;;;5044783;28;20403;-80
2021/04/04 01:33:19;;;;;;;1.58;0.75;;;25.30;96.80;;;;;;5048943;28;21016;-79
2021/04/04 01:35:54;;;;;;;3.37;0.70;;;25.40;97.20;;;;;;5049481;28;20486;-79
2021/04/04 01:38:27;;;;;;;3.53;0.65;;;25.30;96.80;;;;;;5037666;28;20504;-80
2021/04/04 01:41:04;;;;;;;1.50;0.60;;;25.40;97.40;;;;;;5042408;28;20469;-79
2021/04/04 01:43:32;;;;;;;1.60;0.60;;;25.30;97.50;;;;;;5030766;28;20409;-79
2021/04/04 01:46:01;;;;;;;1.42;0.63;;;25.30;98.50;;;;;;5029624;28;20378;-79
2021/04/04 01:48:31;;;;;;;1.20;0.52;;;25.40;95.80;;;;;;5048822;28;20442;-78
2021/04/04 01:50:59;;;;;;;2.58;0.45;;;25.30;95.50;;;;;;5032039;28;20421;-79
2021/04/04 01:53:26;;;;;;;1.35;0.70;;;25.40;97.10;;;;;;5044561;28;20401;-80
2021/04/04 01:55:53;;;;;;;0.85;0.55;;;25.40;97.30;;;;;;5043344;28;20393;-79
2021/04/04 01:58:21;;;;;;;1.48;0.60;;;25.40;96.70;;;;;;5045832;28;20399;-79
2021/04/04 02:00:48;;;;;;;0.38;0.30;;;25.40;96.60;;;;;;5044281;28;20453;-79
2021/04/04 02:03:16;;;;;;;2.90;0.50;;;25.50;95.20;;;;;;5033408;28;20409;-79
2021/04/04 02:05:44;;;;;;;2.60;0.50;;;25.50;96.10;;;;;;5029935;28;20453;-79
2021/04/04 02:08:12;;;;;;;1.27;0.55;;;25.50;95.00;;;;;;5040669;28;20498;-79
2021/04/04 02:10:40;;;;;;;2.83;0.50;;;25.50;95.80;;;;;;5055265;28;20759;-80
2021/04/04 02:13:08;;;;;;;3.90;0.60;;;25.60;96.20;;;;;;5041929;28;20396;-81
2021/04/04 02:15:36;;;;;;;1.50;0.32;;;25.60;95.60;;;;;;5035193;28;20395;-81
2021/04/04 02:18:10;;;;;;;1.80;0.50;;;25.60;95.60;;;;;;5038756;28;20799;-81
2021/04/04 02:20:38;;;;;;;1.30;0.50;;;25.80;95.40;;;;;;5033798;28;20425;-80
2021/04/04 02:23:09;;;;;;;1.40;0.50;;;25.90;95.70;;;;;;5035757;28;20449;-81
2021/04/04 02:25:37;;;;;;;2.17;0.90;;;25.90;94.80;;;;;;5033333;28;20438;-81
2021/04/04 02:28:04;;;;;;;1.58;0.40;;;25.90;95.40;;;;;;5043835;28;20381;-81
2021/04/04 02:30:32;;;;;;;2.63;0.60;;;26.00;95.50;;;;;;5033651;28;20392;-81
2021/04/04 02:33:09;;;;;;;0.57;0.40;;;26.00;95.50;;;;;;5039270;28;20405;-81
2021/04/04 02:35:40;;;;;;;5.32;0.50;;;26.10;94.40;;;;;;5037187;28;20398;-83
2021/04/04 02:38:15;;;;;;;1.70;0.50;;;26.10;95.20;;;;;;5035951;28;20391;-82
2021/04/04 02:40:45;;;;;;;0.40;0.40;;;26.20;95.60;;;;;;5062293;28;20438;-83
2021/04/04 02:43:23;;;;;;;2.03;0.52;;;26.10;95.70;;;;;;5037359;28;20417;-82
2021/04/04 02:45:51;;;;;;;1.67;0.40;;;26.20;94.70;;;;;;5039210;28;20431;-82
2021/04/04 02:48:28;;;;;;;0.53;0.50;;;26.30;94.90;;;;;;5039345;28;20795;-82
2021/04/04 02:50:59;;;;;;;1.00;0.50;;;26.30;94.80;;;;;;5043500;28;20400;-82
2021/04/04 02:53:28;;;;;;;2.80;0.85;;;26.30;94.60;;;;;;5046729;28;20920;-79
2021/04/04 02:55:57;;;;;;;1.02;0.40;;;26.40;93.30;;;;;;5044101;28;20408;-82
2021/04/04 02:58:25;;;;;;;0.90;0.50;;;26.40;93.30;;;;;;5031277;28;20873;-83
2021/04/04 03:00:57;;;;;;;1.42;0.57;;;26.50;94.10;;;;;;5028881;28;20401;-82
2021/04/04 03:03:29;;;;;;;2.90;0.93;;;26.50;92.60;;;;;;5052020;28;20486;-83
2021/04/04 03:05:58;;;;;;;1.60;0.60;;;26.50;92.10;;;;;;5055248;28;20429;-83
2021/04/04 03:08:26;;;;;;;1.70;0.40;;;26.50;92.90;;;;;;5047439;28;20411;-84
2021/04/04 03:10:56;;;;;;;0.63;0.40;;;26.60;90.70;;;;;;5046553;28;20394;-81
2021/04/04 03:13:24;;;;;;;1.10;0.50;;;26.70;91.00;;;;;;5037391;28;20891;-82
2021/04/04 03:15:52;;;;;;;2.50;0.47;;;26.90;91.60;;;;;;5055491;28;20403;-83
2021/04/04 03:18:21;;;;;;;1.98;0.47;;;26.90;90.80;;;;;;5041680;28;20400;-82
2021/04/04 03:20:50;;;;;;;1.17;0.43;;;26.90;91.10;;;;;;5035524;28;20403;-82
2021/04/04 03:23:19;;;;;;;1.60;0.52;;;26.80;92.30;;;;;;5045382;28;20418;-83
2021/04/04 03:25:46;;;;;;;0.43;0.30;;;26.70;92.70;;;;;;5061692;28;20474;-81
2021/04/04 03:28:17;;;;;;;0.60;0.45;;;26.70;93.20;;;;;;5061452;28;20440;-81
2021/04/04 03:30:46;;;;;;;0.60;0.30;;;26.80;91.80;;;;;;5046780;28;20404;-82
2021/04/04 03:33:17;;;;;;;0.75;0.47;;;26.60;91.50;;;;;;5030500;28;20389;-82
2021/04/04 03:35:47;;;;;;;1.50;0.40;;;26.60;91.90;;;;;;5027829;28;20397;-82
2021/04/04 03:38:16;;;;;;;1.80;0.50;;;26.40;90.40;;;;;;5032385;28;20396;-82
2021/04/04 03:40:45;;;;;;;0.73;0.30;;;26.40;90.60;;;;;;5039568;28;20397;-82
2021/04/04 03:43:20;;;;;;;0.95;0.60;;;26.50;90.70;;;;;;5038619;28;20918;-82
2021/04/04 03:45:52;;;;;;;0.90;0.30;;;26.40;91.60;;;;;;5049791;28;20395;-83
2021/04/04 03:48:21;;;;;;;1.15;0.20;;;26.40;88.50;;;;;;5052393;28;20404;-82
2021/04/04 03:50:49;;;;;;;1.80;0.40;;;26.30;89.40;;;;;;5031982;28;20803;-81
2021/04/04 03:53:25;;;;;;;0.47;0.30;;;26.30;91.70;;;;;;5034342;28;20444;-82
2021/04/04 03:56:00;;;;;;;0.55;0.35;;;26.30;91.20;;;;;;5046371;28;20902;-81
2021/04/04 03:58:30;;;;;;;0.85;0.50;;;26.30;92.20;;;;;;5051843;28;20422;-81
2021/04/04 04:00:58;;;;;;;1.00;0.30;;;26.30;94.20;;;;;;5042690;28;21030;-85
2021/04/04 04:03:25;;;;;;;0.70;0.30;;;26.20;94.30;;;;;;5050423;28;20430;-84
2021/04/04 04:05:54;;;;;;;0.70;0.40;;;26.20;92.30;;;;;;5039179;28;20487;-81
2021/04/04 04:08:22;;;;;;;2.80;0.50;;;26.10;93.70;;;;;;5049415;28;20400;-81
2021/04/04 04:10:49;;;;;;;3.00;0.50;;;26.10;93.20;;;;;;5035222;28;21007;-79
2021/04/04 04:13:17;;;;;;;1.90;0.40;;;26.10;95.40;;;;;;5032262;28;20396;-79
2021/04/04 04:15:44;;;;;;;1.50;0.40;;;26.10;93.80;;;;;;5044377;28;20763;-79
2021/04/04 04:18:12;;;;;;;1.25;0.30;;;26.20;93.90;;;;;;5049353;28;20400;-79
2021/04/04 04:20:40;;;;;;;1.45;0.45;;;26.10;94.40;;;;;;5031627;28;20381;-79
2021/04/04 04:23:08;;;;;;;1.23;0.45;;;26.00;94.70;;;;;;5031899;28;20444;-79
2021/04/04 04:25:37;;;;;;;2.22;0.40;;;26.00;94.00;;;;;;5046724;28;20444;-79
2021/04/04 04:28:06;;;;;;;1.73;0.30;;;26.00;93.00;;;;;;5032891;28;20985;-79
2021/04/04 04:30:33;;;;;;;3.40;0.40;;;26.10;92.10;;;;;;5046553;28;20386;-79
2021/04/04 04:33:02;;;;;;;1.57;0.40;;;26.20;91.40;;;;;;5047046;28;20421;-79
2021/04/04 04:35:31;;;;;;;1.05;0.35;;;26.30;92.00;;;;;;5031199;28;20381;-80
2021/04/04 04:37:59;;;;;;;0.33;0.30;;;26.20;90.90;;;;;;5031328;28;20732;-79
2021/04/04 04:40:27;;;;;;;0.50;0.30;;;26.10;89.30;;;;;;5031130;28;20450;-80
2021/04/04 04:42:56;;;;;;;0.90;0.40;;;26.10;89.10;;;;;;5038905;28;20415;-79
2021/04/04 04:45:29;;;;;;;1.27;0.50;;;26.20;89.50;;;;;;5050951;28;20925;-79
2021/04/04 04:47:57;;;;;;;0.93;0.30;;;26.30;90.00;;;;;;5049425;28;20553;-78
2021/04/04 04:50:25;;;;;;;0.57;0.30;;;26.20;90.20;;;;;;5064398;28;20387;-79
2021/04/04 04:52:55;;;;;;;0.82;0.30;;;26.10;89.60;;;;;;5030461;28;20377;-79
2021/04/04 04:55:25;;;;;;;1.50;0.30;;;26.00;84.40;;;;;;5030712;28;20424;-79
2021/04/04 04:57:53;;;;;;;1.05;0.20;;;25.90;86.40;;;;;;5047442;28;20380;-79
2021/04/04 05:00:23;;;;;;;0.45;0.40;;;25.80;87.60;;;;;;5065337;28;20392;-79
2021/04/04 05:02:50;;;;;;;1.30;0.30;;;25.70;88.70;;;;;;5013664;28;20401;-79
2021/04/04 05:05:18;;;;;;;1.10;0.43;;;25.60;88.60;;;;;;5045973;28;21018;-79
2021/04/04 05:07:46;;;;;;;1.23;0.30;;;25.50;90.70;;;;;;5030068;28;20405;-79
2021/04/04 05:10:14;;;;;;;0.32;0.25;;;25.50;90.50;;;;;;5031633;28;20385;-79
2021/04/04 05:12:57;;;;;;;1.85;0.40;;;25.50;91.20;;;;;;5030664;28;20370;-79
2021/04/04 05:15:27;;;;;;;1.00;0.30;;;25.60;90.80;;;;;;5029218;28;20858;-79
2021/04/04 05:17:54;;;;;;;1.03;0.30;;;25.50;90.90;;;;;;5030782;28;20381;-79
2021/04/04 05:20:22;;;;;;;0.93;0.50;;;25.50;90.70;;;;;;5047872;28;20388;-79
2021/04/04 05:22:49;;;;;;;1.80;0.40;;;25.40;91.30;;;;;;5065685;28;20811;-78
2021/04/04 05:25:17;;;;;;;1.50;0.30;;;25.40;91.00;;;;;;5050341;28;20501;-79
2021/04/04 05:27:44;;;;;;;0.70;0.40;;;25.40;92.50;;;;;;5050303;28;20380;-79
2021/04/04 05:30:13;;;;;;;0.43;0.35;;;25.40;92.20;;;;;;5049718;28;20372;-79
2021/04/04 05:32:50;;;;;;;0.60;0.40;;;25.40;92.50;;;;;;5029155;28;20386;-79
2021/04/04 05:35:23;;;;;;;2.77;0.43;;;25.30;93.50;;;;;;5030150;28;21012;-79
2021/04/04 05:37:54;;;;;;;1.00;0.52;;;25.30;94.90;;;;;;5030108;28;20389;-79
2021/04/04 05:40:26;;;;;;;1.42;0.60;;;25.20;96.30;;;;;;5030582;28;20381;-79
2021/04/04 05:42:59;;;;;;;1.55;0.43;;;25.10;98.90;;;;;;5065310;28;20536;-78
2021/04/04 05:45:45;;;;;;;1.33;0.60;;;25.10;99.90;;;;;;5049830;28;20387;-79
2021/04/04 05:48:12;;;;;;;3.72;0.68;;;25.10;99.90;;;;;;5049836;28;20506;-79
2021/04/04 05:51:16;;;;;;;2.28;0.80;;;25.10;99.90;;;;;;5033328;28;20737;-79
2021/04/04 05:54:10;;;;;;;3.13;0.80;;;25.10;99.90;;;;;;5029601;28;20472;-79
2021/04/04 05:56:48;;;;;;;3.67;0.88;;;25.10;99.90;;;;;;5029809;28;20378;-79
2021/04/04 05:59:46;;;;;;;1.02;0.63;;;25.10;99.90;;;;;;5032609;28;20388;-78
2021/04/04 06:02:38;;;;;;;3.05;0.65;;;25.10;99.90;;;;;;5040914;28;20908;-80
2021/04/04 06:05:29;;;;;;;2.95;0.65;;;25.10;99.90;;;;;;5047173;28;20406;-79
2021/04/04 06:08:33;;;;;;;2.78;0.68;;;25.00;99.90;;;;;;5049440;28;20372;-78
2021/04/04 06:11:30;;;;;;;2.15;0.70;;;25.10;99.90;;;;;;5029542;28;20417;-79
2021/04/04 06:13:57;;;;;;;2.23;0.70;;;25.10;99.90;;;;;;5028333;28;20439;-79
2021/04/04 06:16:57;;;;;;;2.80;1.00;;;25.00;99.90;;;;;;5029456;28;20368;-79
2021/04/04 06:19:47;;;;;;;4.00;0.95;;;25.00;99.90;;;;;;5039173;28;20794;-79
2021/04/04 06:22:41;;;;;;;2.47;0.85;;;25.00;99.90;;;;;;5049361;28;20800;-79
2021/04/04 06:25:11;;;;;;;3.28;0.80;;;24.90;99.90;;;;;;5048252;28;20411;-79
2021/04/04 06:28:09;;;;;;;2.45;0.80;;;24.90;99.90;;;;;;5048163;28;20739;-79
2021/04/04 06:30:46;;;;;;;4.20;0.93;;;24.70;99.90;;;;;;5008569;28;20401;-79
2021/04/04 06:33:28;;;;;;;4.78;0.90;;;24.60;99.90;;;;;;5029417;28;20461;-79
2021/04/04 06:36:38;;;;;;;3.80;0.90;;;24.60;99.90;;;;;;5029572;28;20395;-78
2021/04/04 06:39:16;;;;;;;2.67;0.80;;;24.40;99.90;;;;;;4988537;28;20377;-78
2021/04/04 06:41:49;;;;;;;2.17;0.60;;;24.30;99.90;;;;;;5026129;28;20409;-79
2021/04/04 06:44:23;;;;;;;2.87;0.80;;;24.20;99.90;;;;;;5046815;28;20403;-79
2021/04/04 06:47:14;;;;;;;6.65;1.52;;;24.10;99.90;;;;;;5048902;28;20458;-79
2021/04/04 06:49:59;;;;;;;3.60;0.90;;;24.10;99.90;;;;;;5049102;28;20783;-78
2021/04/04 06:52:38;;;;;;;3.72;1.05;;;24.10;99.90;;;;;;5046928;28;20871;-79
2021/04/04 06:55:21;;;;;;;3.47;1.10;;;24.10;99.90;;;;;;5029162;28;20365;-78
2021/04/04 06:58:12;;;;;;;7.22;1.10;;;24.10;99.90;;;;;;5029159;28;20401;-78
2021/04/04 07:00:59;;;;;;;5.03;1.10;;;24.00;99.90;;;;;;5044224;28;20392;-78
2021/04/04 07:03:29;;;;;;;2.95;1.00;;;23.90;99.90;;;;;;5027848;28;20779;-79
2021/04/04 07:06:38;;;;;;;4.30;0.95;;;23.80;99.90;;;;;;5039412;28;20905;-79
2021/04/04 07:09:14;;;;;;;5.13;1.10;;;23.80;99.90;;;;;;5028716;28;20400;-78
2021/04/04 07:11:56;;;;;;;1.83;0.88;;;23.60;99.90;;;;;;5028884;28;20405;-78
2021/04/04 07:14:41;;;;;;;4.35;0.80;;;23.60;99.90;;;;;;5029064;28;20461;-78
2021/04/04 07:17:26;;;;;;;2.17;1.05;;;23.50;99.90;;;;;;5040100;28;20467;-77
2021/04/04 07:20:30;;;;;;;2.88;1.20;;;23.50;99.90;;;;;;5052788;28;20376;-78
2021/04/04 07:23:36;;;;;;;4.65;1.23;;;23.40;99.90;;;;;;5052662;28;20410;-79
2021/04/04 07:26:18;;;;;;;4.53;1.25;;;23.10;99.90;;;;;;5037708;28;20907;-79
2021/04/04 07:29:00;;;;;;;2.65;1.40;;;23.00;99.90;;;;;;5031277;28;20432;-79
2021/04/04 07:31:37;;;;;;;4.00;1.02;;;22.90;99.90;;;;;;5033034;28;20706;-78
2021/04/04 07:34:14;;;;;;;3.40;1.15;;;22.80;99.90;;;;;;5032451;28;20366;-78
2021/04/04 07:36:54;;;;;;;4.47;1.30;;;22.80;99.90;;;;;;5049206;28;20457;-79
2021/04/04 07:39:27;;;;;;;3.42;1.10;;;22.60;99.90;;;;;;5051204;28;20802;-79
2021/04/04 07:42:12;;;;;;;2.53;1.10;;;22.50;99.90;;;;;;5052094;28;20489;-79
2021/04/04 07:44:56;;;;;;;3.95;1.20;;;22.40;99.90;;;;;;5051047;28;20402;-79
2021/04/04 07:47:46;;;;;;;6.10;1.35;;;22.30;99.90;;;;;;5033233;28;20401;-79
2021/04/04 07:50:21;;;;;;;4.63;1.02;;;22.20;99.90;;;;;;5012849;28;20796;-79
2021/04/04 07:53:15;;;;;;;4.28;1.20;;;22.20;99.90;;;;;;5032110;28;20385;-79
2021/04/04 07:55:54;;;;;;;5.93;1.42;;;22.10;99.90;;;;;;5038838;28;20922;-80
2021/04/04 07:58:28;;;;;;;3.47;1.23;;;22.00;99.90;;;;;;5051961;28;20376;-79
2021/04/04 08:01:09;;;;;;;5.57;1.35;;;22.00;99.90;;;;;;5051812;28;20480;-78
2021/04/04 08:04:00;;;;;;;4.40;1.45;;;21.90;99.90;;;;;;5051802;28;20399;-79
2021/04/04 08:06:57;;;;;;;4.43;1.42;;;21.90;99.90;;;;;;5051812;28;20455;-79
2021/04/04 08:09:42;;;;;;;3.70;1.33;;;21.80;99.90;;;;;;5037482;28;20402;-78
2021/04/04 08:12:44;;;;;;;3.45;1.23;;;21.80;99.90;;;;;;5051864;28;20376;-78
2021/04/04 08:15:49;;;;;;;4.07;1.30;;;21.80;99.90;;;;;;5054191;28;20378;-79
2021/04/04 08:18:17;;;;;;;5.20;1.40;;;21.80;99.90;;;;;;5051751;28;20368;-78
2021/04/04 08:20:55;;;;;;;3.38;1.20;;;21.80;99.90;;;;;;5050386;28;20400;-79
2021/04/04 08:23:57;;;;;;;4.05;1.35;;;21.80;99.90;;;;;;5051580;28;20415;-79
2021/04/04 08:26:55;;;;;;;5.10;1.40;;;21.80;99.90;;;;;;5042461;28;20376;-78
2021/04/04 08:29:39;;;;;;;5.60;1.60;;;21.80;99.90;;;;;;5028851;28;20391;-78
2021/04/04 08:32:09;;;;;;;5.32;1.20;;;21.70;99.90;;;;;;5051871;28;20917;-79
2021/04/04 08:34:47;;;;;;;3.23;1.10;;;21.70;99.90;;;;;;5052010;28;20380;-79
2021/04/04 08:37:18;;;;;;;3.58;1.30;;;21.80;99.90;;;;;;5051479;28;20379;-79
2021/04/04 08:39:58;;;;;;;5.10;1.35;;;21.70;99.90;;;;;;5051077;28;20376;-78
2021/04/04 08:42:28;;;;;;;5.43;1.40;;;21.70;99.90;;;;;;5036256;28;20420;-78
2021/04/04 08:45:09;;;;;;;4.87;1.63;;;21.70;99.90;;;;;;5031618;28;20911;-79
2021/04/04 08:47:47;;;;;;;6.25;1.55;;;21.70;99.90;;;;;;5046659;28;20397;-79
2021/04/04 08:50:20;;;;;;;5.45;1.60;;;21.70;99.90;;;;;;5039910;28;20383;-78
2021/04/04 08:53:24;;;;;;;5.20;1.47;;;21.70;99.90;;;;;;5066573;28;20741;-79
2021/04/04 08:55:52;;;;;;;3.33;1.53;;;21.70;99.90;;;;;;5051188;28;20723;-79
2021/04/04 08:58:25;;;;;;;4.18;1.60;;;21.70;99.90;;;;;;5051198;28;20928;-79
2021/04/04 09:01:01;;;;;;;3.92;1.45;;;21.60;99.90;;;;;;5037299;28;20476;-79
2021/04/04 09:03:30;;;;;;;4.73;1.40;;;21.60;99.90;;;;;;5031499;28;20401;-79
2021/04/04 09:06:02;;;;;;;6.40;2.10;;;21.50;99.90;;;;;;5031727;28;20458;-79
2021/04/04 09:08:31;;;;;;;6.05;1.70;;;21.50;99.90;;;;;;5031382;28;20365;-80
2021/04/04 09:11:00;;;;;;;6.60;1.25;;;21.50;99.90;;;;;;5048128;28;20783;-78
2021/04/04 09:13:35;;;;;;;3.83;1.38;;;21.50;99.90;;;;;;5051089;28;20383;-79
2021/04/04 09:16:13;;;;;;;4.85;1.45;;;21.50;99.90;;;;;;5051261;28;20433;-79
2021/04/04 09:18:51;;;;;;;3.93;1.70;;;21.50;99.90;;;;;;5051829;28;22135;-79
2021/04/04 09:21:22;;;;;;;6.27;1.73;;;21.50;99.90;;;;;;5050301;28;20438;-79
2021/04/04 09:23:53;;;;;;;3.80;1.40;;;21.40;99.90;;;;;;5052237;28;20382;-79
2021/04/04 09:26:25;;;;;;;4.72;1.40;;;21.50;99.90;;;;;;5051077;28;20379;-80
2021/04/04 09:28:54;;;;;;;6.20;1.40;;;21.40;99.90;;;;;;5038512;28;20395;-79
2021/04/04 09:31:27;;;;;;;3.78;1.52;;;21.50;99.90;;;;;;5031183;28;20381;-79
2021/04/04 09:34:08;;;;;;;2.88;1.50;;;21.40;99.90;;;;;;5031132;28;20413;-80
2021/04/04 09:36:39;;;;;;;7.18;1.45;;;21.40;99.90;;;;;;5032510;28;20382;-79
2021/04/04 09:39:26;;;;;;;5.85;2.08;;;21.40;99.90;;;;;;5045496;28;20398;-78
2021/04/04 09:41:55;;;;;;;2.78;1.38;;;21.30;99.90;;;;;;5035095;28;20468;-79
2021/04/04 09:44:32;;;;;;;3.95;1.30;;;21.30;99.90;;;;;;5039582;28;20439;-79
2021/04/04 09:47:01;;;;;;;7.67;1.60;;;21.20;99.90;;;;;;5044603;28;20388;-79
2021/04/04 09:49:46;;;;;;;3.70;1.50;;;21.10;99.90;;;;;;5056174;28;20763;-80
2021/04/04 09:52:28;;;;;;;6.10;1.55;;;21.20;99.90;;;;;;5059357;28;20461;-80
2021/04/04 09:55:02;;;;;;;3.67;1.40;;;21.20;99.90;;;;;;5048772;28;20879;-80
2021/04/04 09:57:29;;;;;;;2.97;1.10;;;21.10;99.90;;;;;;5033502;28;20405;-80
2021/04/04 09:59:56;;;;;;;4.00;1.52;;;21.10;99.90;;;;;;5030237;28;20417;-80
2021/04/04 10:02:36;;;;;;;2.83;1.55;;;21.10;99.90;;;;;;5045781;28;20869;-81
2021/04/04 10:05:04;;;;;;;4.63;1.35;;;21.00;99.90;;;;;;5039718;28;20751;-81
2021/04/04 10:07:34;;;;;;;5.17;1.60;;;20.90;99.90;;;;;;5039145;28;20430;-77
2021/04/04 10:10:03;;;;;;;5.30;1.40;;;20.90;99.90;;;;;;5035973;28;20452;-81
2021/04/04 10:12:35;;;;;;;2.72;1.50;;;20.90;99.90;;;;;;5041538;28;20479;-80
2021/04/04 10:15:07;;;;;;;3.17;1.30;;;20.80;99.90;;;;;;5041677;28;20410;-81
2021/04/04 10:17:37;;;;;;;3.27;1.27;;;20.80;99.90;;;;;;5042005;28;20387;-81
2021/04/04 10:20:06;;;;;;;3.10;1.55;;;20.90;99.90;;;;;;5046396;28;20389;-80
2021/04/04 10:23:02;;;;;;;5.63;1.27;;;20.80;99.90;;;;;;5038329;28;20413;-80
2021/04/04 10:25:30;;;;;;;3.58;1.20;;;20.80;99.90;;;;;;5028627;28;20487;-79
2021/04/04 10:28:05;;;;;;;6.30;1.38;;;20.80;99.90;;;;;;5034306;28;20403;-80
2021/04/04 10:30:34;;;;;;;2.78;1.40;;;20.90;99.90;;;;;;5028145;28;20385;-79
2021/04/04 10:33:24;;;;;;;4.38;1.63;;;20.90;99.90;;;;;;5041354;28;20395;-79
2021/04/04 10:35:53;;;;;;;3.05;1.25;;;20.90;99.90;;;;;;5054170;28;20507;-80
2021/04/04 10:38:23;;;;;;;4.05;1.33;;;20.90;99.90;;;;;;5045524;28;20439;-78
2021/04/04 10:40:54;;;;;;;3.28;1.45;;;20.80;99.90;;;;;;5046150;28;20743;-79
2021/04/04 10:43:39;;;;;;;3.42;1.40;;;20.80;99.90;;;;;;5030278;28;20409;-78
2021/04/04 10:46:10;;;;;;;4.38;1.38;;;20.70;99.90;;;;;;5037320;28;20740;-79
2021/04/04 10:48:40;;;;;;;4.80;1.60;;;20.70;99.90;;;;;;5030821;28;20965;-80
2021/04/04 10:51:14;;;;;;;4.20;1.58;;;20.60;99.90;;;;;;5035760;28;20395;-80
2021/04/04 10:53:41;;;;;;;2.90;1.45;;;20.60;99.90;;;;;;5037018;28;20397;-79
2021/04/04 10:56:11;;;;;;;3.50;1.30;;;20.60;99.90;;;;;;5038078;28;20399;-79
2021/04/04 10:58:38;;;;;;;3.15;1.48;;;20.60;99.90;;;;;;5047378;28;20399;-79
2021/04/04 11:01:07;;;;;;;4.83;1.40;;;20.60;99.90;;;;;;5048134;28;20416;-79
2021/04/04 11:03:34;;;;;;;4.50;1.40;;;20.60;99.90;;;;;;5046910;28;20461;-78
2021/04/04 11:06:02;;;;;;;3.80;1.52;;;20.60;99.90;;;;;;5044507;28;20874;-78
2021/04/04 11:08:29;;;;;;;3.97;1.40;;;20.50;99.90;;;;;;5031516;28;20436;-78
2021/04/04 11:10:57;;;;;;;2.22;1.33;;;20.50;99.90;;;;;;5039233;28;20388;-78
2021/04/04 11:13:24;;;;;;;3.73;1.70;;;20.50;99.90;;;;;;5061752;28;20478;-78
2021/04/04 11:16:07;;;;;;;3.75;1.40;;;20.50;99.90;;;;;;5041232;28;20401;-79
2021/04/04 11:18:49;;;;;;;2.50;1.30;;;20.50;99.90;;;;;;5034788;28;20900;-78
2021/04/04 11:21:29;;;;;;;3.20;1.40;;;20.50;99.90;;;;;;5034949;28;20480;-79
2021/04/04 11:23:56;;;;;;;2.20;1.30;;;20.60;99.90;;;;;;5029447;28;20408;-79
2021/04/04 11:26:36;;;;;;;2.90;1.27;;;20.60;99.90;;;;;;5047412;28;20483;-79
2021/04/04 11:29:19;;;;;;;3.30;1.50;;;20.60;99.90;;;;;;5032403;28;20389;-79
2021/04/04 11:31:49;;;;;;;3.20;1.50;;;20.70;99.90;;;;;;5032940;28;20387;-78
2021/04/04 11:34:38;;;;;;;4.13;1.57;;;20.70;99.90;;;;;;5033098;28;20397;-79
2021/04/04 11:37:11;;;;;;;4.47;1.73;;;20.70;99.90;;;;;;5029667;28;20880;-79
2021/04/04 11:39:39;;;;;;;4.03;1.67;;;20.70;99.90;;;;;;5063156;28;20387;-78
2021/04/04 11:42:18;;;;;;;4.65;1.80;;;20.70;99.90;;;;;;5047617;28;20419;-80
2021/04/04 11:44:53;;;;;;;2.47;1.50;;;20.70;99.90;;;;;;5043822;28;20393;-79
2021/04/04 11:47:19;;;;;;;4.47;1.60;;;20.60;99.90;;;;;;5036454;28;20544;-79
2021/04/04 11:49:50;;;;;;;5.27;1.60;;;20.50;99.90;;;;;;5040491;28;20758;-79
2021/04/04 11:52:17;;;;;;;3.33;1.52;;;20.40;99.90;;;;;;5042154;28;20398;-79
2021/04/04 11:54:48;;;;;;;3.35;1.50;;;20.40;99.90;;;;;;5029195;28;20939;-79
2021/04/04 11:57:35;;;;;;;4.50;1.50;;;20.40;99.90;;;;;;5028392;28;20392;-79
2021/04/04 12:00:17;;;;;;;3.37;1.47;;;20.40;99.90;;;;;;5052303;28;20394;-78
2021/04/04 12:03:00;;;;;;;4.72;1.58;;;20.40;99.90;;;;;;5050725;28;20414;-79
2021/04/04 12:05:36;;;;;;;4.75;1.60;;;20.40;99.90;;;;;;5032901;28;20386;-79
2021/04/04 12:08:04;;;;;;;8.15;1.30;;;20.40;99.90;;;;;;5036431;28;20423;-79
2021/04/04 12:10:36;;;;;;;3.20;1.40;;;20.40;99.90;;;;;;5044493;28;20399;-79
2021/04/04 12:13:11;;;;;;;2.60;1.45;;;20.40;99.90;;;;;;5050985;28;20396;-79
2021/04/04 12:15:38;;;;;;;4.13;1.70;;;20.30;99.90;;;;;;5051232;28;20412;-79
2021/04/04 12:18:06;;;;;;;4.88;1.73;;;20.20;99.90;;;;;;5051727;28;20380;-78
2021/04/04 12:20:34;;;;;;;4.22;1.75;;;20.20;99.90;;;;;;5049233;28;20388;-79
2021/04/04 12:23:12;;;;;;;2.95;2.00;;;20.10;99.90;;;;;;5038733;28;20414;-79
2021/04/04 12:25:40;;;;;;;2.20;1.50;;;20.00;99.90;;;;;;5042525;28;20747;-79
2021/04/04 12:28:07;;;;;;;6.05;1.75;;;20.00;99.90;;;;;;5049774;28;20720;-79
2021/04/04 12:30:39;;;;;;;3.47;1.55;;;20.00;99.90;;;;;;5040055;28;20380;-79
2021/04/04 12:33:07;;;;;;;10.77;1.80;;;20.00;99.90;;;;;;5033281;28;20383;-80
2021/04/04 12:35:36;;;;;;;3.37;1.70;;;20.00;99.90;;;;;;5039712;28;20393;-79
2021/04/04 12:38:04;;;;;;;4.13;1.70;;;20.00;99.90;;;;;;5033136;28;20880;-79
2021/04/04 12:40:31;;;;;;;1.67;1.50;;;19.90;99.90;;;;;;5034906;28;20405;-79
2021/04/04 12:43:02;;;;;;;4.15;1.58;;;19.90;99.90;;;;;;5045067;28;20901;-79
2021/04/04 12:45:36;;;;;;;6.22;1.75;;;19.90;99.90;;;;;;5044092;28;20387;-79
2021/04/04 12:48:15;;;;;;;2.75;1.73;;;19.90;99.90;;;;;;5036558;28;20409;-79
2021/04/04 12:50:43;;;;;;;5.93;1.83;;;19.90;99.90;;;;;;5047248;28;20391;-79
2021/04/04 12:53:10;;;;;;;2.55;1.67;;;19.80;99.90;;;;;;5061164;28;20481;-79
2021/04/04 12:55:37;;;;;;;2.90;1.40;;;19.80;99.90;;;;;;5049288;28;20380;-79
2021/04/04 12:58:09;;;;;;;3.40;1.70;;;19.80;99.90;;;;;;5049956;28;20395;-79
2021/04/04 13:00:41;;;;;;;3.10;1.73;;;19.80;99.90;;;;;;5048086;28;20473;-79
2021/04/04 13:03:15;;;;;;;3.63;1.60;;;19.80;99.90;;;;;;5040697;28;20544;-79
2021/04/04 13:05:50;;;;;;;2.33;1.48;;;19.80;99.90;;;;;;5041100;28;20921;-79
2021/04/04 13:08:29;;;;;;;2.58;1.50;;;19.90;99.90;;;;;;5038151;28;20477;-78
2021/04/04 13:11:03;;;;;;;6.77;1.70;;;19.90;99.90;;;;;;5036019;28;20379;-79
2021/04/04 13:13:38;;;;;;;3.90;1.65;;;19.80;99.90;;;;;;5041682;28;20392;-79
2021/04/04 13:16:07;;;;;;;4.03;1.50;;;19.80;99.90;;;;;;5046985;28;20392;-79
2021/04/04 13:18:39;;;;;;;3.00;1.73;;;19.70;99.90;;;;;;5048896;28;20395;-79
2021/04/04 13:21:13;;;;;;;3.72;1.50;;;19.80;99.90;;;;;;5046662;28;20966;-79